createdAt,value
2023-05-07T00:00:21.400Z,14.40
2023-05-07T00:07:04.125Z,14.30
2023-05-07T00:13:46.821Z,14.50
2023-05-07T00:20:29.119Z,14.30
2023-05-07T00:27:12.455Z,14.30
2023-05-07T00:33:54.768Z,14.20
2023-05-07T00:40:37.087Z,14.00
2023-05-07T00:47:19.488Z,13.90
2023-05-07T00:54:03.513Z,13.90
2023-05-07T01:00:46.157Z,13.90
2023-05-07T01:07:29.182Z,13.80
2023-05-07T01:14:11.944Z,13.60
2023-05-07T01:20:56.575Z,13.60
2023-05-07T01:27:39.160Z,13.80
2023-05-07T01:34:23.234Z,13.80
2023-05-07T01:41:06.073Z,13.80
2023-05-07T01:47:49.017Z,13.60
2023-05-07T01:54:32.312Z,13.50
2023-05-07T02:01:15.690Z,13.50
2023-05-07T02:07:59.404Z,13.40
2023-05-07T02:14:43.960Z,13.50
2023-05-07T02:21:26.637Z,13.30
2023-05-07T02:28:09.280Z,13.30
2023-05-07T02:35:05.118Z,13.30
2023-05-07T02:41:47.483Z,13.30
2023-05-07T02:48:29.964Z,13.40
2023-05-07T02:55:12.636Z,13.40
2023-05-07T03:01:55.300Z,13.20
2023-05-07T03:08:38.103Z,13.20
2023-05-07T03:15:20.685Z,13.10
2023-05-07T03:22:03.183Z,13.00
2023-05-07T03:28:45.544Z,13.00
2023-05-07T03:35:30.052Z,13.00
2023-05-07T03:42:12.617Z,12.90
2023-05-07T03:48:55.244Z,12.70
2023-05-07T03:55:37.685Z,12.60
2023-05-07T04:02:20.871Z,12.60
2023-05-07T04:09:03.871Z,12.70
2023-05-07T04:15:47.457Z,12.40
2023-05-07T04:22:32.185Z,12.40
2023-05-07T04:29:14.877Z,12.50
2023-05-07T04:35:57.695Z,12.70
2023-05-07T04:42:41.586Z,12.90
2023-05-07T04:49:26.029Z,13.00
2023-05-07T04:56:10.692Z,13.60
2023-05-07T05:02:57.529Z,13.70
2023-05-07T05:09:40.626Z,13.60
2023-05-07T05:16:23.915Z,13.60
2023-05-07T05:23:07.162Z,13.80
2023-05-07T05:29:50.029Z,14.20
2023-05-07T05:36:32.928Z,14.50
2023-05-07T05:43:15.985Z,16.50
2023-05-07T05:49:59.196Z,19.00
2023-05-07T05:56:43.291Z,21.50
2023-05-07T06:03:25.919Z,23.20
2023-05-07T06:10:09.479Z,24.30
2023-05-07T06:16:52.343Z,23.70
2023-05-07T06:23:34.883Z,22.80
2023-05-07T06:30:18.082Z,22.70
2023-05-07T06:37:00.601Z,22.10
2023-05-07T06:43:53.896Z,22.30
2023-05-07T06:50:45.619Z,24.00
2023-05-07T06:57:28.438Z,26.60
2023-05-07T07:04:11.030Z,28.80
2023-05-07T07:10:55.427Z,31.30
2023-05-07T07:17:38.433Z,32.60
2023-05-07T07:24:22.395Z,32.40
2023-05-07T07:31:08.969Z,32.90
2023-05-07T07:37:51.495Z,33.10
2023-05-07T07:44:34.636Z,33.10
2023-05-07T07:51:22.511Z,33.90
2023-05-07T07:58:05.305Z,34.10
2023-05-07T08:04:48.046Z,32.10
2023-05-07T08:11:30.507Z,31.50
2023-05-07T08:18:12.951Z,30.60
2023-05-07T08:24:55.847Z,29.60
2023-05-07T08:31:40.309Z,29.90
2023-05-07T08:38:22.752Z,31.20
2023-05-07T08:45:09.737Z,31.80
2023-05-07T08:51:53.196Z,29.80
2023-05-07T08:58:37.377Z,31.20
2023-05-07T09:05:21.380Z,32.80
2023-05-07T09:12:04.718Z,32.70
2023-05-07T09:18:53.141Z,33.60
2023-05-07T09:25:37.032Z,35.20
2023-05-07T09:32:28.124Z,36.10
2023-05-07T09:39:14.104Z,35.40
2023-05-07T09:45:57.365Z,35.00
2023-05-07T09:52:42.717Z,34.50
2023-05-07T09:59:30.170Z,35.20
2023-05-07T10:06:15.535Z,34.80
2023-05-07T10:12:58.588Z,35.60
2023-05-07T10:19:47.877Z,34.80
2023-05-07T10:26:31.978Z,35.30
2023-05-07T10:33:17.714Z,35.40
2023-05-07T10:40:00.801Z,36.00
2023-05-07T10:47:11.526Z,35.60
2023-05-07T10:54:11.781Z,33.10
2023-05-07T11:01:01.548Z,31.10
2023-05-07T11:07:56.340Z,28.90
2023-05-07T11:14:42.118Z,27.50
2023-05-07T11:21:40.856Z,28.20
2023-05-07T11:28:31.261Z,28.10
2023-05-07T11:35:18.859Z,27.60
2023-05-07T11:42:04.121Z,27.30
2023-05-07T11:48:46.437Z,27.20
2023-05-07T11:55:29.222Z,27.20
2023-05-07T12:02:14.251Z,27.00
2023-05-07T12:08:56.780Z,26.80
2023-05-07T12:15:39.088Z,26.80
2023-05-07T12:22:21.774Z,26.20
2023-05-07T12:29:04.598Z,25.50
2023-05-07T12:35:48.998Z,25.20
2023-05-07T12:42:36.109Z,24.80
2023-05-07T12:49:23.736Z,24.40
2023-05-07T12:56:07.637Z,23.70
2023-05-07T13:02:50.062Z,22.80
2023-05-07T13:09:32.608Z,22.20
2023-05-07T13:16:15.048Z,21.60
2023-05-07T13:22:57.381Z,20.80
2023-05-07T13:29:39.704Z,19.40
2023-05-07T13:36:22.164Z,18.60
2023-05-07T13:43:06.418Z,17.90
2023-05-07T13:49:50.453Z,17.70
2023-05-07T13:56:33.302Z,17.30
2023-05-07T14:03:15.786Z,17.40
2023-05-07T14:09:58.648Z,17.40
2023-05-07T14:16:41.341Z,17.10
2023-05-07T14:23:27.361Z,16.80
2023-05-07T14:30:09.986Z,16.80
2023-05-07T14:36:53.214Z,16.80
2023-05-07T14:43:35.648Z,17.20
2023-05-07T14:50:18.870Z,17.90
2023-05-07T14:57:01.146Z,18.20
2023-05-07T15:03:43.616Z,18.60
2023-05-07T15:10:26.275Z,18.40
2023-05-07T15:17:08.812Z,18.10
2023-05-07T15:23:51.235Z,17.80
2023-05-07T15:30:34.188Z,17.60
2023-05-07T15:37:16.466Z,17.80
2023-05-07T15:43:58.987Z,18.40
2023-05-07T15:50:41.336Z,18.90
2023-05-07T15:57:24.341Z,19.00
2023-05-07T16:04:08.218Z,19.00
2023-05-07T16:10:51.121Z,18.90
2023-05-07T16:17:33.467Z,19.00
2023-05-07T16:24:16.600Z,18.90
2023-05-07T16:30:58.935Z,18.60
2023-05-07T16:37:41.750Z,18.70
2023-05-07T16:44:24.076Z,18.80
2023-05-07T16:51:08.175Z,18.70
2023-05-07T16:57:50.504Z,18.50
2023-05-07T17:04:33.008Z,18.40
2023-05-07T17:11:15.272Z,18.30
2023-05-07T17:17:57.682Z,18.20
2023-05-07T17:24:40.056Z,18.50
2023-05-07T17:31:22.371Z,18.70
2023-05-07T17:38:04.719Z,18.60
2023-05-07T17:44:47.036Z,18.60
2023-05-07T17:51:33.821Z,18.80
2023-05-07T17:58:22.695Z,18.40
2023-05-07T18:05:05.355Z,18.30
2023-05-07T18:11:48.378Z,17.90
2023-05-07T18:18:31.764Z,17.40
2023-05-07T18:25:14.123Z,17.10
2023-05-07T18:31:56.408Z,17.00
2023-05-07T18:38:38.946Z,17.20
2023-05-07T18:45:21.458Z,17.30
2023-05-07T18:52:03.868Z,17.50
2023-05-07T18:58:46.186Z,17.60
2023-05-07T19:05:28.531Z,17.40
2023-05-07T19:12:10.948Z,17.20
2023-05-07T19:18:53.221Z,17.30
2023-05-07T19:25:35.785Z,17.10
2023-05-07T19:32:20.292Z,17.00
2023-05-07T19:39:02.895Z,17.10
2023-05-07T19:45:45.221Z,17.10
2023-05-07T19:52:27.537Z,17.00
2023-05-07T19:59:09.864Z,16.90
2023-05-07T20:05:52.226Z,17.00
2023-05-07T20:12:34.570Z,16.90
2023-05-07T20:19:17.776Z,17.00
2023-05-07T20:26:00.923Z,17.00
2023-05-07T20:32:43.437Z,17.10
2023-05-07T20:39:25.955Z,17.00
2023-05-07T20:46:08.312Z,17.10
2023-05-07T20:52:50.889Z,16.90
2023-05-07T20:59:34.872Z,16.50
2023-05-07T21:06:17.203Z,16.30
2023-05-07T21:12:59.544Z,16.50
2023-05-07T21:19:43.187Z,16.70
2023-05-07T21:26:25.870Z,16.90
2023-05-07T21:33:08.643Z,16.80
2023-05-07T21:39:50.992Z,16.80
2023-05-07T21:46:33.719Z,16.80
2023-05-07T21:53:16.068Z,16.80
2023-05-07T21:59:58.410Z,16.80
2023-05-07T22:06:40.953Z,16.70
2023-05-07T22:13:23.606Z,16.50
2023-05-07T22:20:06.725Z,16.50
2023-05-07T22:26:49.063Z,16.50
2023-05-07T22:33:32.184Z,16.40
2023-05-07T22:40:14.858Z,16.30
2023-05-07T22:46:57.282Z,16.10
2023-05-07T22:53:39.606Z,16.30
2023-05-07T23:00:22.060Z,16.40
2023-05-07T23:07:04.452Z,16.40
2023-05-07T23:13:47.107Z,16.20
2023-05-07T23:20:29.432Z,16.30
2023-05-07T23:27:11.698Z,16.30
2023-05-07T23:33:54.016Z,16.30
2023-05-07T23:40:36.449Z,16.30
2023-05-07T23:47:18.947Z,16.30
2023-05-07T23:54:01.268Z,16.10
